Lake Worth, FL

6:33 AM EST on March 02, 2015 (GMT -0500)
D A N E T S | Change Station
CLOSE
Current Station
Personal Weather Station
Location: Lake Worth, FL
Elevation: 25 ft
Nearby Weather Stations

Elev 25 ft 26.61 °N, 80.17 °W | Updated 2 minutes ago

Partly Cloudy
Partly Cloudy
64.8 °F
Feels Like 64.8 °F
N
0.0
Wind Variable Wind from ESE
Gusts 5.0 mph

Today
High -- | Low -- °F
--% Chance of Precip.
Yesterday
High -- | Low -- °F
Precip. -- in
6:43 AM 6:22 PM
Waxing Gibbous, 91% visible
Pressure 30.25 in
Visibility 10.0 miles
Clouds Few 1900 ft
Scattered Clouds 2900 ft
Scattered Clouds 4500 ft
Dew Point 63 °F
Humidity 93%
Rainfall 0.00 in
Snow Depth Not available.
UV 0.0 out of 12
Pollen 10.50 out of 12
Air Quality Not available.
Flu Activity Not available.
METAR KPBI 021053Z 09005KT 10SM FEW019 SCT029 SCT045 23/20 A3025 RMK AO2 SLP241 T02280200

More Conditions Fewer Conditions

Pressure 30.25 in
Visibility 10.0 miles
Clouds Few 1900 ft
Scattered Clouds 2900 ft
Scattered Clouds 4500 ft
Dew Point 63 °F
Humidity 93%
Rainfall 0.00 in
Snow Depth Not available.
UV 0.0 out of 12
Pollen 10.50 out of 12
Air Quality Not available.
Flu Activity Not available.
METAR KPBI 021053Z 09005KT 10SM FEW019 SCT029 SCT045 23/20 A3025 RMK AO2 SLP241 T02280200

More Conditions Fewer Conditions

10-Day Weather Forecast

Almanac

Astronomy

Mar. 02, 2015 Rise Set
Actual Time
Civil Twilight
Nautical Twilight
Astronomical Twilight
Moon
Length of Visible Light
Length of Day
Tomorrow will be .
, % of the Moon is Illuminated

Today's Extremes

State Highs State Lows

Community

WunderPhotos

Upload Photos

1,801,757 photos uploaded!

WunderBlogs® & News

Nearby

Air Quality

  Air Quality AQ Index Pollutant
Not available.

Snow Depth

Station Depth Elevation

Earthquake Activity

City Distance Mag. Time & Date
Minimum magnitude displayed is 2.5.

Coastal Water Temperatures

Place Temperature

Nearby Weather Stations